<?xml version="1.0" encoding="UTF-8"?>
<gpx creator="Garmin Connect" version="1.1"
  xsi:schemaLocation="http://www.topografix.com/GPX/1/1 http://www.topografix.com/GPX/11.xsd"
  xmlns:ns3="http://www.garmin.com/xmlschemas/TrackPointExtension/v1"
  xmlns="http://www.topografix.com/GPX/1/1"
  xmlns:xsi="http://www.w3.org/2001/XMLSchema-instance" xmlns:ns2="http://www.garmin.com/xmlschemas/GpxExtensions/v3">
  <metadata>
    <name>Cestna casovka 15km/480vm</name>
    <link href="connect.garmin.com">
      <text>Garmin Connect</text>
    </link>
    <time>2023-11-15T12:31:54.000Z</time>
  </metadata>
  <trk>
    <name>Cestna casovka 15km/480vm</name>
    <trkseg>
      <trkpt lat="48.2799802813679" lon="17.049144180491567">
        <ele>198.41</ele>
        <time>2023-11-15T12:31:54.000Z</time>
      </trkpt>
      <trkpt lat="48.280298709869385" lon="17.04904317855835">
        <ele>199.21</ele>
        <time>2023-11-15T12:31:54.005Z</time>
      </trkpt>
      <trkpt lat="48.280330980196595" lon="17.04903244972229">
        <ele>199.84</ele>
        <time>2023-11-15T12:31:54.011Z</time>
      </trkpt>
      <trkpt lat="48.28038462437689" lon="17.04904317855835">
        <ele>200.42</ele>
        <time>2023-11-15T12:31:54.018Z</time>
      </trkpt>
      <trkpt lat="48.280609929934144" lon="17.051982879638672">
        <ele>201.91</ele>
        <time>2023-11-15T12:31:54.056Z</time>
      </trkpt>
      <trkpt lat="48.28065276145935" lon="17.05281972885132">
        <ele>202.71</ele>
        <time>2023-11-15T12:31:54.103Z</time>
      </trkpt>
      <trkpt lat="48.28064203262329" lon="17.053624391555786">
        <ele>203.36</ele>
        <time>2023-11-15T12:31:54.159Z</time>
      </trkpt>
      <trkpt lat="48.28044899739325" lon="17.05580234527588">
        <ele>203.89</ele>
        <time>2023-11-15T12:31:54.238Z</time>
      </trkpt>
      <trkpt lat="48.2804274559021" lon="17.055941820144653">
        <ele>204.09</ele>
        <time>2023-11-15T12:31:54.319Z</time>
      </trkpt>
      <trkpt lat="48.28036308288574" lon="17.056177854537964">
        <ele>203.96</ele>
        <time>2023-11-15T12:31:54.403Z</time>
      </trkpt>
      <trkpt lat="48.280287981033325" lon="17.056338787078857">
        <ele>203.6</ele>
        <time>2023-11-15T12:31:54.489Z</time>
      </trkpt>
      <trkpt lat="48.28021287918091" lon="17.056478261947632">
        <ele>203.13</ele>
        <time>2023-11-15T12:31:54.577Z</time>
      </trkpt>
      <trkpt lat="48.28001984395087" lon="17.056682109832764">
        <ele>202.65</ele>
        <time>2023-11-15T12:31:54.668Z</time>
      </trkpt>
      <trkpt lat="48.27996611595154" lon="17.05673575401306">
        <ele>202.18</ele>
        <time>2023-11-15T12:31:54.760Z</time>
      </trkpt>
      <trkpt lat="48.27969789505005" lon="17.056875228881836">
        <ele>201.76</ele>
        <time>2023-11-15T12:31:54.857Z</time>
      </trkpt>
      <trkpt lat="48.2794189453125" lon="17.05698251724243">
        <ele>201.44</ele>
        <time>2023-11-15T12:31:54.959Z</time>
      </trkpt>
      <trkpt lat="48.27922582626343" lon="17.057089805603027">
        <ele>201.13</ele>
        <time>2023-11-15T12:31:55.064Z</time>
      </trkpt>
      <trkpt lat="48.279064893722534" lon="17.05724000930786">
        <ele>200.87</ele>
        <time>2023-11-15T12:31:55.172Z</time>
      </trkpt>
      <trkpt lat="48.27892541885376" lon="17.057411670684814">
        <ele>200.68</ele>
        <time>2023-11-15T12:31:55.283Z</time>
      </trkpt>
      <trkpt lat="48.278818214312196" lon="17.057572603225708">
        <ele>200.63</ele>
        <time>2023-11-15T12:31:55.396Z</time>
      </trkpt>
      <trkpt lat="48.278818130493164" lon="17.057572603225708">
        <ele>200.66</ele>
        <time>2023-11-15T12:31:55.509Z</time>
      </trkpt>
      <trkpt lat="48.27824958600104" lon="17.05851674079895">
        <ele>200.79</ele>
        <time>2023-11-15T12:31:55.636Z</time>
      </trkpt>
      <trkpt lat="48.27824950218201" lon="17.05851674079895">
        <ele>201.01</ele>
        <time>2023-11-15T12:31:55.763Z</time>
      </trkpt>
      <trkpt lat="48.27809929847717" lon="17.05877423286438">
        <ele>201.36</ele>
        <time>2023-11-15T12:31:55.893Z</time>
      </trkpt>
      <trkpt lat="48.27800273895264" lon="17.058967351913452">
        <ele>201.79</ele>
        <time>2023-11-15T12:31:56.026Z</time>
      </trkpt>
      <trkpt lat="48.27720880508423" lon="17.06080198287964">
        <ele>202.29</ele>
        <time>2023-11-15T12:31:56.182Z</time>
      </trkpt>
      <trkpt lat="48.276307582855225" lon="17.062679529190063">
        <ele>202.97</ele>
        <time>2023-11-15T12:31:56.363Z</time>
      </trkpt>
      <trkpt lat="48.27610373497009" lon="17.06302285194397">
        <ele>203.62</ele>
        <time>2023-11-15T12:31:56.549Z</time>
      </trkpt>
      <trkpt lat="48.27591061592102" lon="17.063312530517578">
        <ele>204.38</ele>
        <time>2023-11-15T12:31:56.739Z</time>
      </trkpt>
      <trkpt lat="48.27567458152771" lon="17.063602209091187">
        <ele>205.11</ele>
        <time>2023-11-15T12:31:56.934Z</time>
      </trkpt>
      <trkpt lat="48.27512741088867" lon="17.064170837402344">
        <ele>205.98</ele>
        <time>2023-11-15T12:31:57.140Z</time>
      </trkpt>
      <trkpt lat="48.27452667988837" lon="17.06477165222168">
        <ele>206.85</ele>
        <time>2023-11-15T12:31:57.357Z</time>
      </trkpt>
      <trkpt lat="48.274526596069336" lon="17.06477165222168">
        <ele>207.66</ele>
        <time>2023-11-15T12:31:57.575Z</time>
      </trkpt>
      <trkpt lat="48.27344298362732" lon="17.065908908843994">
        <ele>208.63</ele>
        <time>2023-11-15T12:31:57.814Z</time>
      </trkpt>
      <trkpt lat="48.272552490234375" lon="17.066681385040283">
        <ele>209.65</ele>
        <time>2023-11-15T12:31:58.069Z</time>
      </trkpt>
      <trkpt lat="48.2724130153656" lon="17.066831588745117">
        <ele>210.37</ele>
        <time>2023-11-15T12:31:58.327Z</time>
      </trkpt>
      <trkpt lat="48.27160835266113" lon="17.067872285842896">
        <ele>211.34</ele>
        <time>2023-11-15T12:31:58.602Z</time>
      </trkpt>
      <trkpt lat="48.271039724349976" lon="17.06847310066223">
        <ele>212.26</ele>
        <time>2023-11-15T12:31:58.888Z</time>
      </trkpt>
      <trkpt lat="48.27073931694031" lon="17.068816423416138">
        <ele>213.02</ele>
        <time>2023-11-15T12:31:59.180Z</time>
      </trkpt>
      <trkpt lat="48.27011704444885" lon="17.069642543792725">
        <ele>214.11</ele>
        <time>2023-11-15T12:31:59.485Z</time>
      </trkpt>
      <trkpt lat="48.26921590603888" lon="17.070897817611694">
        <ele>214.85</ele>
        <time>2023-11-15T12:31:59.810Z</time>
      </trkpt>
      <trkpt lat="48.26917299069464" lon="17.07096219062805">
        <ele>215.64</ele>
        <time>2023-11-15T12:32:00.136Z</time>
      </trkpt>
      <trkpt lat="48.26862573623657" lon="17.0717990398407">
        <ele>216.7</ele>
        <time>2023-11-15T12:32:00.475Z</time>
      </trkpt>
      <trkpt lat="48.268293142318726" lon="17.07229256629944">
        <ele>217.48</ele>
        <time>2023-11-15T12:32:00.821Z</time>
      </trkpt>
      <trkpt lat="48.268057107925415" lon="17.072603702545166">
        <ele>218.28</ele>
        <time>2023-11-15T12:32:01.172Z</time>
      </trkpt>
      <trkpt lat="48.26738119125366" lon="17.073429822921753">
        <ele>219.34</ele>
        <time>2023-11-15T12:32:01.537Z</time>
      </trkpt>
      <trkpt lat="48.267284631729126" lon="17.073580026626587">
        <ele>220.15</ele>
        <time>2023-11-15T12:32:01.904Z</time>
      </trkpt>
      <trkpt lat="48.26718807220459" lon="17.07377314567566">
        <ele>220.97</ele>
        <time>2023-11-15T12:32:02.274Z</time>
      </trkpt>
      <trkpt lat="48.267070138826966" lon="17.07404136657715">
        <ele>221.78</ele>
        <time>2023-11-15T12:32:02.647Z</time>
      </trkpt>
      <trkpt lat="48.267070055007935" lon="17.07404136657715">
        <ele>222.54</ele>
        <time>2023-11-15T12:32:03.020Z</time>
      </trkpt>
      <trkpt lat="48.266834020614624" lon="17.07472801208496">
        <ele>223.3</ele>
        <time>2023-11-15T12:32:03.402Z</time>
      </trkpt>
      <trkpt lat="48.26675891876221" lon="17.074931859970093">
        <ele>224.06</ele>
        <time>2023-11-15T12:32:03.786Z</time>
      </trkpt>
      <trkpt lat="48.266136730089784" lon="17.07625150680542">
        <ele>224.96</ele>
        <time>2023-11-15T12:32:04.187Z</time>
      </trkpt>
      <trkpt lat="48.26613664627075" lon="17.07625150680542">
        <ele>225.7</ele>
        <time>2023-11-15T12:32:04.588Z</time>
      </trkpt>
      <trkpt lat="48.26599717140198" lon="17.076573371887207">
        <ele>226.51</ele>
        <time>2023-11-15T12:32:04.994Z</time>
      </trkpt>
      <trkpt lat="48.26577186584473" lon="17.077174186706543">
        <ele>227.34</ele>
        <time>2023-11-15T12:32:05.407Z</time>
      </trkpt>
      <trkpt lat="48.265589559450746" lon="17.077796459197998">
        <ele>228.16</ele>
        <time>2023-11-15T12:32:05.827Z</time>
      </trkpt>
      <trkpt lat="48.265321254730225" lon="17.079083919525146">
        <ele>228.94</ele>
        <time>2023-11-15T12:32:06.262Z</time>
      </trkpt>
      <trkpt lat="48.265278339385986" lon="17.079319953918457">
        <ele>229.68</ele>
        <time>2023-11-15T12:32:06.699Z</time>
      </trkpt>
      <trkpt lat="48.26523542404175" lon="17.079427242279053">
        <ele>230.39</ele>
        <time>2023-11-15T12:32:07.138Z</time>
      </trkpt>
      <trkpt lat="48.265096032992005" lon="17.0797061920166">
        <ele>231.08</ele>
        <time>2023-11-15T12:32:07.580Z</time>
      </trkpt>
      <trkpt lat="48.2650101184845" lon="17.079942226409912">
        <ele>231.73</ele>
        <time>2023-11-15T12:32:08.025Z</time>
      </trkpt>
      <trkpt lat="48.26460242271423" lon="17.08151936531067">
        <ele>232.47</ele>
        <time>2023-11-15T12:32:08.488Z</time>
      </trkpt>
      <trkpt lat="48.26424837112427" lon="17.08274245262146">
        <ele>233.29</ele>
        <time>2023-11-15T12:32:08.965Z</time>
      </trkpt>
      <trkpt lat="48.26418399810791" lon="17.082828283309937">
        <ele>233.87</ele>
        <time>2023-11-15T12:32:09.444Z</time>
      </trkpt>
      <trkpt lat="48.26371192932129" lon="17.08324670791626">
        <ele>234.24</ele>
        <time>2023-11-15T12:32:09.932Z</time>
      </trkpt>
      <trkpt lat="48.263583183288574" lon="17.083858251571655">
        <ele>234.89</ele>
        <time>2023-11-15T12:32:10.426Z</time>
      </trkpt>
      <trkpt lat="48.263529539108276" lon="17.084040641784668">
        <ele>235.55</ele>
        <time>2023-11-15T12:32:10.923Z</time>
      </trkpt>
      <trkpt lat="48.26317548751831" lon="17.0846951007843">
        <ele>236.32</ele>
        <time>2023-11-15T12:32:11.429Z</time>
      </trkpt>
      <trkpt lat="48.26301455497742" lon="17.085038423538208">
        <ele>236.93</ele>
        <time>2023-11-15T12:32:11.939Z</time>
      </trkpt>
      <trkpt lat="48.26266050338745" lon="17.085843086242676">
        <ele>237.88</ele>
        <time>2023-11-15T12:32:12.459Z</time>
      </trkpt>
      <trkpt lat="48.262574672698975" lon="17.086068391799927">
        <ele>238.59</ele>
        <time>2023-11-15T12:32:12.982Z</time>
      </trkpt>
      <trkpt lat="48.26224207878113" lon="17.086669206619263">
        <ele>239.25</ele>
        <time>2023-11-15T12:32:13.513Z</time>
      </trkpt>
      <trkpt lat="48.26170563697815" lon="17.087548971176147">
        <ele>239.69</ele>
        <time>2023-11-15T12:32:14.057Z</time>
      </trkpt>
      <trkpt lat="48.261533975601196" lon="17.087892293930054">
        <ele>240.41</ele>
        <time>2023-11-15T12:32:14.606Z</time>
      </trkpt>
      <trkpt lat="48.261287212371826" lon="17.088557481765747">
        <ele>241.06</ele>
        <time>2023-11-15T12:32:15.163Z</time>
      </trkpt>
      <trkpt lat="48.26111555099487" lon="17.089083194732666">
        <ele>241.84</ele>
        <time>2023-11-15T12:32:15.726Z</time>
      </trkpt>
      <trkpt lat="48.26087951660156" lon="17.09020972251892">
        <ele>242.69</ele>
        <time>2023-11-15T12:32:16.302Z</time>
      </trkpt>
      <trkpt lat="48.26048254966736" lon="17.091411352157593">
        <ele>243.52</ele>
        <time>2023-11-15T12:32:16.892Z</time>
      </trkpt>
      <trkpt lat="48.26039671897888" lon="17.091861963272095">
        <ele>244.48</ele>
        <time>2023-11-15T12:32:17.487Z</time>
      </trkpt>
      <trkpt lat="48.2603217009455" lon="17.092580795288086">
        <ele>245.6</ele>
        <time>2023-11-15T12:32:18.090Z</time>
      </trkpt>
      <trkpt lat="48.260321617126465" lon="17.092580795288086">
        <ele>246.68</ele>
        <time>2023-11-15T12:32:18.693Z</time>
      </trkpt>
      <trkpt lat="48.26025724411011" lon="17.093085050582886">
        <ele>247.97</ele>
        <time>2023-11-15T12:32:19.301Z</time>
      </trkpt>
      <trkpt lat="48.26012849807739" lon="17.093814611434937">
        <ele>249.31</ele>
        <time>2023-11-15T12:32:19.918Z</time>
      </trkpt>
      <trkpt lat="48.260064125061035" lon="17.094147205352783">
        <ele>250.61</ele>
        <time>2023-11-15T12:32:20.538Z</time>
      </trkpt>
      <trkpt lat="48.25993537902832" lon="17.094597816467285">
        <ele>251.99</ele>
        <time>2023-11-15T12:32:21.163Z</time>
      </trkpt>
      <trkpt lat="48.259838819503784" lon="17.09496259689331">
        <ele>253.55</ele>
        <time>2023-11-15T12:32:21.793Z</time>
      </trkpt>
      <trkpt lat="48.25976371765137" lon="17.095370292663574">
        <ele>255.12</ele>
        <time>2023-11-15T12:32:22.427Z</time>
      </trkpt>
      <trkpt lat="48.2597101572901" lon="17.095853090286255">
        <ele>256.64</ele>
        <time>2023-11-15T12:32:23.066Z</time>
      </trkpt>
      <trkpt lat="48.25972088612616" lon="17.096174955368042">
        <ele>258.32</ele>
        <time>2023-11-15T12:32:23.709Z</time>
      </trkpt>
      <trkpt lat="48.25975298881531" lon="17.09720492362976">
        <ele>260.64</ele>
        <time>2023-11-15T12:32:24.363Z</time>
      </trkpt>
      <trkpt lat="48.25975298881531" lon="17.09745168685913">
        <ele>262.13</ele>
        <time>2023-11-15T12:32:25.020Z</time>
      </trkpt>
      <trkpt lat="48.25973153114319" lon="17.097676992416382">
        <ele>263.52</ele>
        <time>2023-11-15T12:32:25.679Z</time>
      </trkpt>
      <trkpt lat="48.25969934463501" lon="17.09794521331787">
        <ele>264.75</ele>
        <time>2023-11-15T12:32:26.341Z</time>
      </trkpt>
      <trkpt lat="48.25962424278259" lon="17.0982027053833">
        <ele>265.98</ele>
        <time>2023-11-15T12:32:27.006Z</time>
      </trkpt>
      <trkpt lat="48.259538412094116" lon="17.09843873977661">
        <ele>267.22</ele>
        <time>2023-11-15T12:32:27.674Z</time>
      </trkpt>
      <trkpt lat="48.25937747955322" lon="17.098803520202637">
        <ele>268.29</ele>
        <time>2023-11-15T12:32:28.346Z</time>
      </trkpt>
      <trkpt lat="48.25919508934021" lon="17.099114656448364">
        <ele>269.14</ele>
        <time>2023-11-15T12:32:29.023Z</time>
      </trkpt>
      <trkpt lat="48.25914144515991" lon="17.099297046661377">
        <ele>270.23</ele>
        <time>2023-11-15T12:32:29.702Z</time>
      </trkpt>
      <trkpt lat="48.25899124145508" lon="17.099887132644653">
        <ele>271.54</ele>
        <time>2023-11-15T12:32:30.388Z</time>
      </trkpt>
      <trkpt lat="48.258851766586304" lon="17.10025191307068">
        <ele>272.47</ele>
        <time>2023-11-15T12:32:31.078Z</time>
      </trkpt>
      <trkpt lat="48.2587016467005" lon="17.100541591644287">
        <ele>273.15</ele>
        <time>2023-11-15T12:32:31.772Z</time>
      </trkpt>
      <trkpt lat="48.258605003356934" lon="17.100788354873657">
        <ele>274.05</ele>
        <time>2023-11-15T12:32:32.469Z</time>
      </trkpt>
      <trkpt lat="48.258540630340576" lon="17.101056575775146">
        <ele>275.08</ele>
        <time>2023-11-15T12:32:33.169Z</time>
      </trkpt>
      <trkpt lat="48.258336782455444" lon="17.101335525512695">
        <ele>275.75</ele>
        <time>2023-11-15T12:32:33.874Z</time>
      </trkpt>
      <trkpt lat="48.2583046797663" lon="17.101421356201172">
        <ele>276.49</ele>
        <time>2023-11-15T12:32:34.580Z</time>
      </trkpt>
      <trkpt lat="48.258304595947266" lon="17.101421356201172">
        <ele>277.14</ele>
        <time>2023-11-15T12:32:35.286Z</time>
      </trkpt>
      <trkpt lat="48.25819730758667" lon="17.10168957710266">
        <ele>277.88</ele>
        <time>2023-11-15T12:32:35.995Z</time>
      </trkpt>
      <trkpt lat="48.25811147689819" lon="17.102022171020508">
        <ele>278.61</ele>
        <time>2023-11-15T12:32:36.708Z</time>
      </trkpt>
      <trkpt lat="48.25801491737366" lon="17.10249423980713">
        <ele>279.49</ele>
        <time>2023-11-15T12:32:37.426Z</time>
      </trkpt>
      <trkpt lat="48.257821798324585" lon="17.10299849510193">
        <ele>279.91</ele>
        <time>2023-11-15T12:32:38.150Z</time>
      </trkpt>
      <trkpt lat="48.25751066207886" lon="17.103556394577026">
        <ele>280.15</ele>
        <time>2023-11-15T12:32:38.882Z</time>
      </trkpt>
      <trkpt lat="48.25721025466919" lon="17.10418939590454">
        <ele>280.37</ele>
        <time>2023-11-15T12:32:39.622Z</time>
      </trkpt>
      <trkpt lat="48.25690984725952" lon="17.104586362838745">
        <ele>280.63</ele>
        <time>2023-11-15T12:32:40.369Z</time>
      </trkpt>
      <trkpt lat="48.25665235519409" lon="17.105015516281128">
        <ele>280.82</ele>
        <time>2023-11-15T12:32:41.122Z</time>
      </trkpt>
      <trkpt lat="48.25642713345587" lon="17.105262279510498">
        <ele>280.75</ele>
        <time>2023-11-15T12:32:41.880Z</time>
      </trkpt>
      <trkpt lat="48.25642704963684" lon="17.105262279510498">
        <ele>280.87</ele>
        <time>2023-11-15T12:32:42.638Z</time>
      </trkpt>
      <trkpt lat="48.256309032440186" lon="17.105412483215332">
        <ele>280.87</ele>
        <time>2023-11-15T12:32:43.398Z</time>
      </trkpt>
      <trkpt lat="48.256137454882264" lon="17.10592746734619">
        <ele>281.26</ele>
        <time>2023-11-15T12:32:44.164Z</time>
      </trkpt>
      <trkpt lat="48.25613737106323" lon="17.10592746734619">
        <ele>281.3</ele>
        <time>2023-11-15T12:32:44.930Z</time>
      </trkpt>
      <trkpt lat="48.25600862503052" lon="17.1062171459198">
        <ele>281.48</ele>
        <time>2023-11-15T12:32:45.700Z</time>
      </trkpt>
      <trkpt lat="48.255837047472596" lon="17.10645318031311">
        <ele>281.45</ele>
        <time>2023-11-15T12:32:46.474Z</time>
      </trkpt>
      <trkpt lat="48.2552791479975" lon="17.107053995132446">
        <ele>281.28</ele>
        <time>2023-11-15T12:32:47.259Z</time>
      </trkpt>
      <trkpt lat="48.25488209724426" lon="17.107568979263306">
        <ele>281.28</ele>
        <time>2023-11-15T12:32:48.052Z</time>
      </trkpt>
      <trkpt lat="48.25465679168701" lon="17.107826471328735">
        <ele>281.29</ele>
        <time>2023-11-15T12:32:48.850Z</time>
      </trkpt>
      <trkpt lat="48.25373411178589" lon="17.108556032180786">
        <ele>281.55</ele>
        <time>2023-11-15T12:32:49.664Z</time>
      </trkpt>
      <trkpt lat="48.25327277183533" lon="17.108781337738037">
        <ele>281.37</ele>
        <time>2023-11-15T12:32:50.486Z</time>
      </trkpt>
      <trkpt lat="48.25313329696655" lon="17.108877897262573">
        <ele>281.27</ele>
        <time>2023-11-15T12:32:51.310Z</time>
      </trkpt>
      <trkpt lat="48.253058195114136" lon="17.10895299911499">
        <ele>281.19</ele>
        <time>2023-11-15T12:32:52.136Z</time>
      </trkpt>
      <trkpt lat="48.25295090675354" lon="17.109156847000122">
        <ele>281.21</ele>
        <time>2023-11-15T12:32:52.965Z</time>
      </trkpt>
      <trkpt lat="48.25253248214722" lon="17.11017608642578">
        <ele>281.47</ele>
        <time>2023-11-15T12:32:53.807Z</time>
      </trkpt>
      <trkpt lat="48.25247883796692" lon="17.110637426376343">
        <ele>281.51</ele>
        <time>2023-11-15T12:32:54.654Z</time>
      </trkpt>
      <trkpt lat="48.25248956680298" lon="17.11092710494995">
        <ele>281.65</ele>
        <time>2023-11-15T12:32:55.504Z</time>
      </trkpt>
      <trkpt lat="48.252607667818666" lon="17.11172103881836">
        <ele>281.98</ele>
        <time>2023-11-15T12:32:56.362Z</time>
      </trkpt>
      <trkpt lat="48.25267204083502" lon="17.112085819244385">
        <ele>282.24</ele>
        <time>2023-11-15T12:32:57.224Z</time>
      </trkpt>
      <trkpt lat="48.25292944908142" lon="17.113373279571533">
        <ele>282.83</ele>
        <time>2023-11-15T12:32:58.101Z</time>
      </trkpt>
      <trkpt lat="48.25302600860596" lon="17.11368441581726">
        <ele>283.14</ele>
        <time>2023-11-15T12:32:58.981Z</time>
      </trkpt>
      <trkpt lat="48.25312256813049" lon="17.11394190788269">
        <ele>283.49</ele>
        <time>2023-11-15T12:32:59.865Z</time>
      </trkpt>
      <trkpt lat="48.253337228670716" lon="17.114360332489014">
        <ele>284.06</ele>
        <time>2023-11-15T12:33:00.754Z</time>
      </trkpt>
      <trkpt lat="48.253337144851685" lon="17.114360332489014">
        <ele>285.04</ele>
        <time>2023-11-15T12:33:01.643Z</time>
      </trkpt>
      <trkpt lat="48.2534658908844" lon="17.114521265029907">
        <ele>286.32</ele>
        <time>2023-11-15T12:33:02.535Z</time>
      </trkpt>
      <trkpt lat="48.25365900993347" lon="17.114650011062622">
        <ele>287.91</ele>
        <time>2023-11-15T12:33:03.430Z</time>
      </trkpt>
      <trkpt lat="48.253862941637635" lon="17.114746570587158">
        <ele>289.85</ele>
        <time>2023-11-15T12:33:04.329Z</time>
      </trkpt>
      <trkpt lat="48.25399160385132" lon="17.114810943603516">
        <ele>292.09</ele>
        <time>2023-11-15T12:33:05.230Z</time>
      </trkpt>
      <trkpt lat="48.25420618057251" lon="17.114864587783813">
        <ele>294.69</ele>
        <time>2023-11-15T12:33:06.134Z</time>
      </trkpt>
      <trkpt lat="48.25441002845764" lon="17.114864587783813">
        <ele>297.6</ele>
        <time>2023-11-15T12:33:07.042Z</time>
      </trkpt>
      <trkpt lat="48.254603147506714" lon="17.114821672439575">
        <ele>300.8</ele>
        <time>2023-11-15T12:33:07.953Z</time>
      </trkpt>
      <trkpt lat="48.25501084327698" lon="17.11467146873474">
        <ele>304.05</ele>
        <time>2023-11-15T12:33:08.870Z</time>
      </trkpt>
      <trkpt lat="48.255085945129395" lon="17.11467146873474">
        <ele>308.11</ele>
        <time>2023-11-15T12:33:09.789Z</time>
      </trkpt>
      <trkpt lat="48.25523614883423" lon="17.114746570587158">
        <ele>312.62</ele>
        <time>2023-11-15T12:33:10.710Z</time>
      </trkpt>
      <trkpt lat="48.25549364089966" lon="17.11499333381653">
        <ele>317.59</ele>
        <time>2023-11-15T12:33:11.636Z</time>
      </trkpt>
      <trkpt lat="48.25527906417847" lon="17.115797996520996">
        <ele>323.66</ele>
        <time>2023-11-15T12:33:12.571Z</time>
      </trkpt>
      <trkpt lat="48.25511813163757" lon="17.116506099700928">
        <ele>329.65</ele>
        <time>2023-11-15T12:33:13.514Z</time>
      </trkpt>
      <trkpt lat="48.255118215456605" lon="17.116506099700928">
        <ele>335.22</ele>
        <time>2023-11-15T12:33:14.457Z</time>
      </trkpt>
      <trkpt lat="48.25420618057251" lon="17.120625972747803">
        <ele>343.73</ele>
        <time>2023-11-15T12:33:15.447Z</time>
      </trkpt>
      <trkpt lat="48.25414180755615" lon="17.121055126190186">
        <ele>349.64</ele>
        <time>2023-11-15T12:33:16.441Z</time>
      </trkpt>
      <trkpt lat="48.25414180755615" lon="17.12143063545227">
        <ele>355.42</ele>
        <time>2023-11-15T12:33:17.439Z</time>
      </trkpt>
      <trkpt lat="48.25424909591675" lon="17.122106552124023">
        <ele>360.98</ele>
        <time>2023-11-15T12:33:18.445Z</time>
      </trkpt>
      <trkpt lat="48.254474401474" lon="17.122868299484253">
        <ele>366.58</ele>
        <time>2023-11-15T12:33:19.460Z</time>
      </trkpt>
      <trkpt lat="48.25478553771973" lon="17.123554944992065">
        <ele>371.81</ele>
        <time>2023-11-15T12:33:20.484Z</time>
      </trkpt>
      <trkpt lat="48.25501084327698" lon="17.123994827270508">
        <ele>376.88</ele>
        <time>2023-11-15T12:33:21.514Z</time>
      </trkpt>
      <trkpt lat="48.25512886047363" lon="17.124348878860474">
        <ele>381.77</ele>
        <time>2023-11-15T12:33:22.548Z</time>
      </trkpt>
      <trkpt lat="48.25513958930969" lon="17.12468147277832">
        <ele>386.37</ele>
        <time>2023-11-15T12:33:23.585Z</time>
      </trkpt>
      <trkpt lat="48.25502157211304" lon="17.12592601776123">
        <ele>391.37</ele>
        <time>2023-11-15T12:33:24.636Z</time>
      </trkpt>
      <trkpt lat="48.2550323009491" lon="17.126280069351196">
        <ele>395.22</ele>
        <time>2023-11-15T12:33:25.691Z</time>
      </trkpt>
      <trkpt lat="48.255085945129395" lon="17.12665557861328">
        <ele>398.57</ele>
        <time>2023-11-15T12:33:26.750Z</time>
      </trkpt>
      <trkpt lat="48.255086028948426" lon="17.12665557861328">
        <ele>401.64</ele>
        <time>2023-11-15T12:33:27.809Z</time>
      </trkpt>
      <trkpt lat="48.255107402801514" lon="17.126741409301758">
        <ele>404.4</ele>
        <time>2023-11-15T12:33:28.869Z</time>
      </trkpt>
      <trkpt lat="48.255107486620545" lon="17.126741409301758">
        <ele>406.92</ele>
        <time>2023-11-15T12:33:29.929Z</time>
      </trkpt>
      <trkpt lat="48.25521469116211" lon="17.127310037612915">
        <ele>408.85</ele>
        <time>2023-11-15T12:33:30.995Z</time>
      </trkpt>
      <trkpt lat="48.25522541999817" lon="17.12746024131775">
        <ele>410.92</ele>
        <time>2023-11-15T12:33:32.063Z</time>
      </trkpt>
      <trkpt lat="48.25520396232605" lon="17.12769627571106">
        <ele>412.86</ele>
        <time>2023-11-15T12:33:33.133Z</time>
      </trkpt>
      <trkpt lat="48.25516104698181" lon="17.12790012359619">
        <ele>414.99</ele>
        <time>2023-11-15T12:33:34.205Z</time>
      </trkpt>
      <trkpt lat="48.255053758621216" lon="17.128136157989502">
        <ele>416.84</ele>
        <time>2023-11-15T12:33:35.281Z</time>
      </trkpt>
      <trkpt lat="48.25493574142456" lon="17.128361463546753">
        <ele>418.48</ele>
        <time>2023-11-15T12:33:36.360Z</time>
      </trkpt>
      <trkpt lat="48.254796266555786" lon="17.128576040267944">
        <ele>420.0</ele>
        <time>2023-11-15T12:33:37.442Z</time>
      </trkpt>
      <trkpt lat="48.25472116470337" lon="17.128779888153076">
        <ele>421.44</ele>
        <time>2023-11-15T12:33:38.526Z</time>
      </trkpt>
      <trkpt lat="48.25456031598151" lon="17.12945580482483">
        <ele>423.5</ele>
        <time>2023-11-15T12:33:39.618Z</time>
      </trkpt>
      <trkpt lat="48.25454958714545" lon="17.129530906677246">
        <ele>424.93</ele>
        <time>2023-11-15T12:33:40.711Z</time>
      </trkpt>
      <trkpt lat="48.254324197769165" lon="17.1307110786438">
        <ele>426.8</ele>
        <time>2023-11-15T12:33:41.817Z</time>
      </trkpt>
      <trkpt lat="48.254313468933105" lon="17.13093638420105">
        <ele>428.25</ele>
        <time>2023-11-15T12:33:42.925Z</time>
      </trkpt>
      <trkpt lat="48.254324197769165" lon="17.131011486053467">
        <ele>429.54</ele>
        <time>2023-11-15T12:33:44.034Z</time>
      </trkpt>
      <trkpt lat="48.2543671131134" lon="17.13115096092224">
        <ele>430.82</ele>
        <time>2023-11-15T12:33:45.145Z</time>
      </trkpt>
      <trkpt lat="48.25448513031006" lon="17.131333351135254">
        <ele>432.17</ele>
        <time>2023-11-15T12:33:46.259Z</time>
      </trkpt>
      <trkpt lat="48.25461387634277" lon="17.131483554840088">
        <ele>433.53</ele>
        <time>2023-11-15T12:33:47.375Z</time>
      </trkpt>
      <trkpt lat="48.25475343503058" lon="17.131590843200684">
        <ele>435.1</ele>
        <time>2023-11-15T12:33:48.494Z</time>
      </trkpt>
      <trkpt lat="48.25479635037482" lon="17.131633758544922">
        <ele>436.71</ele>
        <time>2023-11-15T12:33:49.613Z</time>
      </trkpt>
      <trkpt lat="48.255311250686646" lon="17.132019996643066">
        <ele>438.96</ele>
        <time>2023-11-15T12:33:50.742Z</time>
      </trkpt>
      <trkpt lat="48.25624465942383" lon="17.132588624954224">
        <ele>440.83</ele>
        <time>2023-11-15T12:33:51.887Z</time>
      </trkpt>
      <trkpt lat="48.2564914226532" lon="17.13264226913452">
        <ele>442.82</ele>
        <time>2023-11-15T12:33:53.036Z</time>
      </trkpt>
      <trkpt lat="48.25675972737372" lon="17.13264226913452">
        <ele>444.88</ele>
        <time>2023-11-15T12:33:54.189Z</time>
      </trkpt>
      <trkpt lat="48.25680264271796" lon="17.13264226913452">
        <ele>447.04</ele>
        <time>2023-11-15T12:33:55.343Z</time>
      </trkpt>
      <trkpt lat="48.25692065991461" lon="17.13265299797058">
        <ele>449.43</ele>
        <time>2023-11-15T12:33:56.499Z</time>
      </trkpt>
      <trkpt lat="48.25703867711127" lon="17.13265299797058">
        <ele>452.01</ele>
        <time>2023-11-15T12:33:57.657Z</time>
      </trkpt>
      <trkpt lat="48.25707086361945" lon="17.13266372680664">
        <ele>454.82</ele>
        <time>2023-11-15T12:33:58.815Z</time>
      </trkpt>
      <trkpt lat="48.257339000701904" lon="17.132728099822998">
        <ele>457.96</ele>
        <time>2023-11-15T12:33:59.977Z</time>
      </trkpt>
      <trkpt lat="48.2574462890625" lon="17.132792472839355">
        <ele>461.31</ele>
        <time>2023-11-15T12:34:01.141Z</time>
      </trkpt>
      <trkpt lat="48.257542848587036" lon="17.13288903236389">
        <ele>464.98</ele>
        <time>2023-11-15T12:34:02.307Z</time>
      </trkpt>
      <trkpt lat="48.25763940811157" lon="17.133071422576904">
        <ele>468.97</ele>
        <time>2023-11-15T12:34:03.476Z</time>
      </trkpt>
      <trkpt lat="48.25770378112793" lon="17.133328914642334">
        <ele>473.2</ele>
        <time>2023-11-15T12:34:04.648Z</time>
      </trkpt>
      <trkpt lat="48.25801500119269" lon="17.135120630264282">
        <ele>478.09</ele>
        <time>2023-11-15T12:34:05.839Z</time>
      </trkpt>
      <trkpt lat="48.258293867111206" lon="17.136590480804443">
        <ele>482.37</ele>
        <time>2023-11-15T12:34:07.047Z</time>
      </trkpt>
      <trkpt lat="48.25871229171753" lon="17.13819980621338">
        <ele>486.87</ele>
        <time>2023-11-15T12:34:08.273Z</time>
      </trkpt>
      <trkpt lat="48.25873374938965" lon="17.13840365409851">
        <ele>490.98</ele>
        <time>2023-11-15T12:34:09.501Z</time>
      </trkpt>
      <trkpt lat="48.25872302055359" lon="17.138596773147583">
        <ele>495.15</ele>
        <time>2023-11-15T12:34:10.731Z</time>
      </trkpt>
      <trkpt lat="48.25861573219299" lon="17.139240503311157">
        <ele>499.54</ele>
        <time>2023-11-15T12:34:11.969Z</time>
      </trkpt>
      <trkpt lat="48.258615816012025" lon="17.139240503311157">
        <ele>503.7</ele>
        <time>2023-11-15T12:34:13.207Z</time>
      </trkpt>
      <trkpt lat="48.258540630340576" lon="17.140538692474365">
        <ele>508.42</ele>
        <time>2023-11-15T12:34:14.458Z</time>
      </trkpt>
      <trkpt lat="48.258540630340576" lon="17.141010761260986">
        <ele>512.63</ele>
        <time>2023-11-15T12:34:15.715Z</time>
      </trkpt>
      <trkpt lat="48.25864791870117" lon="17.142469882965088">
        <ele>516.82</ele>
        <time>2023-11-15T12:34:16.987Z</time>
      </trkpt>
      <trkpt lat="48.25870156288147" lon="17.1427059173584">
        <ele>520.62</ele>
        <time>2023-11-15T12:34:18.262Z</time>
      </trkpt>
      <trkpt lat="48.258841037750244" lon="17.14288830757141">
        <ele>524.29</ele>
        <time>2023-11-15T12:34:19.540Z</time>
      </trkpt>
      <trkpt lat="48.259034156799316" lon="17.142995595932007">
        <ele>527.81</ele>
        <time>2023-11-15T12:34:20.821Z</time>
      </trkpt>
      <trkpt lat="48.259302377700806" lon="17.142963409423828">
        <ele>531.11</ele>
        <time>2023-11-15T12:34:22.106Z</time>
      </trkpt>
      <trkpt lat="48.25989246368408" lon="17.142716646194458">
        <ele>534.26</ele>
        <time>2023-11-15T12:34:23.401Z</time>
      </trkpt>
      <trkpt lat="48.260064125061035" lon="17.142759561538696">
        <ele>536.83</ele>
        <time>2023-11-15T12:34:24.699Z</time>
      </trkpt>
      <trkpt lat="48.260289430618286" lon="17.14294195175171">
        <ele>539.05</ele>
        <time>2023-11-15T12:34:26.001Z</time>
      </trkpt>
      <trkpt lat="48.260546922683716" lon="17.143092155456543">
        <ele>540.87</ele>
        <time>2023-11-15T12:34:27.308Z</time>
      </trkpt>
      <trkpt lat="48.26065421104431" lon="17.143102884292603">
        <ele>542.21</ele>
        <time>2023-11-15T12:34:28.616Z</time>
      </trkpt>
      <trkpt lat="48.26072931289673" lon="17.143059968948364">
        <ele>543.14</ele>
        <time>2023-11-15T12:34:29.926Z</time>
      </trkpt>
      <trkpt lat="48.260847413912416" lon="17.14293122291565">
        <ele>543.66</ele>
        <time>2023-11-15T12:34:31.238Z</time>
      </trkpt>
      <trkpt lat="48.261072635650635" lon="17.142620086669922">
        <ele>543.69</ele>
        <time>2023-11-15T12:34:32.555Z</time>
      </trkpt>
      <trkpt lat="48.26121211051941" lon="17.142362594604492">
        <ele>543.33</ele>
        <time>2023-11-15T12:34:33.875Z</time>
      </trkpt>
      <trkpt lat="48.26129802502692" lon="17.14215874671936">
        <ele>542.47</ele>
        <time>2023-11-15T12:34:35.198Z</time>
      </trkpt>
      <trkpt lat="48.26146960258484" lon="17.141729593276978">
        <ele>541.14</ele>
        <time>2023-11-15T12:34:36.526Z</time>
      </trkpt>
      <trkpt lat="48.26167345046997" lon="17.141042947769165">
        <ele>539.1</ele>
        <time>2023-11-15T12:34:37.862Z</time>
      </trkpt>
      <trkpt lat="48.26177000999451" lon="17.140763998031616">
        <ele>536.8</ele>
        <time>2023-11-15T12:34:39.202Z</time>
      </trkpt>
      <trkpt lat="48.26196312904358" lon="17.14038848876953">
        <ele>534.0</ele>
        <time>2023-11-15T12:34:40.547Z</time>
      </trkpt>
      <trkpt lat="48.262048959732056" lon="17.140270471572876">
        <ele>530.97</ele>
        <time>2023-11-15T12:34:41.894Z</time>
      </trkpt>
      <trkpt lat="48.262284994125366" lon="17.140045166015625">
        <ele>527.54</ele>
        <time>2023-11-15T12:34:43.245Z</time>
      </trkpt>
      <trkpt lat="48.262596130371094" lon="17.13988423347473">
        <ele>523.92</ele>
        <time>2023-11-15T12:34:44.601Z</time>
      </trkpt>
      <trkpt lat="48.264387929812074" lon="17.139036655426025">
        <ele>518.89</ele>
        <time>2023-11-15T12:34:45.987Z</time>
      </trkpt>
      <trkpt lat="48.26444157399237" lon="17.139025926589966">
        <ele>515.81</ele>
        <time>2023-11-15T12:34:47.374Z</time>
      </trkpt>
      <trkpt lat="48.26469898223877" lon="17.13889718055725">
        <ele>512.66</ele>
        <time>2023-11-15T12:34:48.766Z</time>
      </trkpt>
      <trkpt lat="48.264806270599365" lon="17.138822078704834">
        <ele>509.71</ele>
        <time>2023-11-15T12:34:50.160Z</time>
      </trkpt>
      <trkpt lat="48.26542854309082" lon="17.138285636901855">
        <ele>506.76</ele>
        <time>2023-11-15T12:34:51.565Z</time>
      </trkpt>
      <trkpt lat="48.266050815582275" lon="17.13765263557434">
        <ele>504.09</ele>
        <time>2023-11-15T12:34:52.982Z</time>
      </trkpt>
      <trkpt lat="48.26613664627075" lon="17.137620449066162">
        <ele>501.98</ele>
        <time>2023-11-15T12:34:54.401Z</time>
      </trkpt>
      <trkpt lat="48.26624393463135" lon="17.13763117790222">
        <ele>500.35</ele>
        <time>2023-11-15T12:34:55.821Z</time>
      </trkpt>
      <trkpt lat="48.2664155960083" lon="17.1377170085907">
        <ele>499.19</ele>
        <time>2023-11-15T12:34:57.244Z</time>
      </trkpt>
      <trkpt lat="48.267070138826966" lon="17.138231992721558">
        <ele>498.8</ele>
        <time>2023-11-15T12:34:58.679Z</time>
      </trkpt>
      <trkpt lat="48.267070055007935" lon="17.138231992721558">
        <ele>498.38</ele>
        <time>2023-11-15T12:35:00.114Z</time>
      </trkpt>
      <trkpt lat="48.26769232749939" lon="17.138779163360596">
        <ele>498.77</ele>
        <time>2023-11-15T12:35:01.561Z</time>
      </trkpt>
      <trkpt lat="48.267810344696045" lon="17.138832807540894">
        <ele>498.74</ele>
        <time>2023-11-15T12:35:03.010Z</time>
      </trkpt>
      <trkpt lat="48.26789617538452" lon="17.138843536376953">
        <ele>498.88</ele>
        <time>2023-11-15T12:35:04.460Z</time>
      </trkpt>
      <trkpt lat="48.268024921417236" lon="17.138832807540894">
        <ele>499.24</ele>
        <time>2023-11-15T12:35:05.912Z</time>
      </trkpt>
      <trkpt lat="48.26812148094177" lon="17.138779163360596">
        <ele>499.66</ele>
        <time>2023-11-15T12:35:07.366Z</time>
      </trkpt>
      <trkpt lat="48.26846480369568" lon="17.13844656944275">
        <ele>500.34</ele>
        <time>2023-11-15T12:35:08.826Z</time>
      </trkpt>
      <trkpt lat="48.268539905548096" lon="17.13840365409851">
        <ele>500.91</ele>
        <time>2023-11-15T12:35:10.287Z</time>
      </trkpt>
      <trkpt lat="48.2686794642359" lon="17.138360738754272">
        <ele>501.58</ele>
        <time>2023-11-15T12:35:11.751Z</time>
      </trkpt>
      <trkpt lat="48.26867938041687" lon="17.138360738754272">
        <ele>502.22</ele>
        <time>2023-11-15T12:35:13.215Z</time>
      </trkpt>
      <trkpt lat="48.26872237958014" lon="17.138350009918213">
        <ele>502.93</ele>
        <time>2023-11-15T12:35:14.679Z</time>
      </trkpt>
      <trkpt lat="48.26926955021918" lon="17.138371467590332">
        <ele>503.66</ele>
        <time>2023-11-15T12:35:16.152Z</time>
      </trkpt>
      <trkpt lat="48.26926946640015" lon="17.138371467590332">
        <ele>504.31</ele>
        <time>2023-11-15T12:35:17.625Z</time>
      </trkpt>
      <trkpt lat="48.270119139924645" lon="17.13843726553023">
        <ele>510.69</ele>
        <time>2023-11-15T12:35:19.112Z</time>
      </trkpt>
      <trkpt lat="48.270119139924645" lon="17.13843734934926">
        <ele>510.75</ele>
        <time>2023-11-15T12:35:20.599Z</time>
      </trkpt>
      <trkpt lat="48.27065348625183" lon="17.138478755950928">
        <ele>509.87</ele>
        <time>2023-11-15T12:35:22.094Z</time>
      </trkpt>
      <trkpt lat="48.27094316482544" lon="17.138532400131226">
        <ele>509.17</ele>
        <time>2023-11-15T12:35:23.594Z</time>
      </trkpt>
      <trkpt lat="48.271114910021424" lon="17.13865041732788">
        <ele>508.77</ele>
        <time>2023-11-15T12:35:25.097Z</time>
      </trkpt>
      <trkpt lat="48.27118992805481" lon="17.138746976852417">
        <ele>508.5</ele>
        <time>2023-11-15T12:35:26.602Z</time>
      </trkpt>
      <trkpt lat="48.27125430107117" lon="17.13888645172119">
        <ele>508.18</ele>
        <time>2023-11-15T12:35:28.109Z</time>
      </trkpt>
      <trkpt lat="48.271318757906556" lon="17.139122486114502">
        <ele>507.78</ele>
        <time>2023-11-15T12:35:29.618Z</time>
      </trkpt>
      <trkpt lat="48.271318674087524" lon="17.139122486114502">
        <ele>507.31</ele>
        <time>2023-11-15T12:35:31.127Z</time>
      </trkpt>
      <trkpt lat="48.271340131759644" lon="17.13937997817993">
        <ele>506.81</ele>
        <time>2023-11-15T12:35:32.639Z</time>
      </trkpt>
      <trkpt lat="48.2713508605957" lon="17.140077352523804">
        <ele>506.33</ele>
        <time>2023-11-15T12:35:34.158Z</time>
      </trkpt>
      <trkpt lat="48.27136158943176" lon="17.140291929244995">
        <ele>505.62</ele>
        <time>2023-11-15T12:35:35.680Z</time>
      </trkpt>
      <trkpt lat="48.27139377593994" lon="17.14046359062195">
        <ele>504.7</ele>
        <time>2023-11-15T12:35:37.204Z</time>
      </trkpt>
      <trkpt lat="48.27147960662842" lon="17.1406352519989">
        <ele>503.62</ele>
        <time>2023-11-15T12:35:38.730Z</time>
      </trkpt>
      <trkpt lat="48.27165126800537" lon="17.140839099884033">
        <ele>502.29</ele>
        <time>2023-11-15T12:35:40.259Z</time>
      </trkpt>
      <trkpt lat="48.27263832092285" lon="17.14168667793274">
        <ele>499.59</ele>
        <time>2023-11-15T12:35:41.807Z</time>
      </trkpt>
      <trkpt lat="48.27279933728278" lon="17.14187979698181">
        <ele>497.17</ele>
        <time>2023-11-15T12:35:43.358Z</time>
      </trkpt>
      <trkpt lat="48.2728636264801" lon="17.142019271850586">
        <ele>494.74</ele>
        <time>2023-11-15T12:35:44.911Z</time>
      </trkpt>
      <trkpt lat="48.27301383018494" lon="17.142598628997803">
        <ele>491.94</ele>
        <time>2023-11-15T12:35:46.470Z</time>
      </trkpt>
      <trkpt lat="48.273024559020996" lon="17.142738103866577">
        <ele>489.49</ele>
        <time>2023-11-15T12:35:48.031Z</time>
      </trkpt>
      <trkpt lat="48.27301383018494" lon="17.14288830757141">
        <ele>487.19</ele>
        <time>2023-11-15T12:35:49.594Z</time>
      </trkpt>
      <trkpt lat="48.27296018600464" lon="17.143220901489258">
        <ele>484.92</ele>
        <time>2023-11-15T12:35:51.160Z</time>
      </trkpt>
      <trkpt lat="48.272831439971924" lon="17.143725156784058">
        <ele>482.64</ele>
        <time>2023-11-15T12:35:52.732Z</time>
      </trkpt>
      <trkpt lat="48.27137231826782" lon="17.14795231819153">
        <ele>480.13</ele>
        <time>2023-11-15T12:35:54.355Z</time>
      </trkpt>
      <trkpt lat="48.2713080290705" lon="17.148327827453613">
        <ele>478.48</ele>
        <time>2023-11-15T12:35:55.982Z</time>
      </trkpt>
      <trkpt lat="48.271307945251465" lon="17.148585319519043">
        <ele>477.25</ele>
        <time>2023-11-15T12:35:57.612Z</time>
      </trkpt>
      <trkpt lat="48.271329402923584" lon="17.148810625076294">
        <ele>476.37</ele>
        <time>2023-11-15T12:35:59.244Z</time>
      </trkpt>
      <trkpt lat="48.27139385975897" lon="17.148982286453247">
        <ele>475.91</ele>
        <time>2023-11-15T12:36:00.878Z</time>
      </trkpt>
      <trkpt lat="48.27139377593994" lon="17.148982286453247">
        <ele>475.81</ele>
        <time>2023-11-15T12:36:02.512Z</time>
      </trkpt>
      <trkpt lat="48.27174782752991" lon="17.14963674545288">
        <ele>475.98</ele>
        <time>2023-11-15T12:36:04.155Z</time>
      </trkpt>
      <trkpt lat="48.27189803123474" lon="17.149819135665894">
        <ele>476.38</ele>
        <time>2023-11-15T12:36:05.801Z</time>
      </trkpt>
      <trkpt lat="48.272069692611694" lon="17.149969339370728">
        <ele>477.1</ele>
        <time>2023-11-15T12:36:07.451Z</time>
      </trkpt>
      <trkpt lat="48.271404504776" lon="17.15240478515625">
        <ele>479.19</ele>
        <time>2023-11-15T12:36:09.129Z</time>
      </trkpt>
      <trkpt lat="48.27112555503845" lon="17.153263092041016">
        <ele>481.18</ele>
        <time>2023-11-15T12:36:10.817Z</time>
      </trkpt>
      <trkpt lat="48.27085733413696" lon="17.154550552368164">
        <ele>483.11</ele>
        <time>2023-11-15T12:36:12.519Z</time>
      </trkpt>
      <trkpt lat="48.27076077461243" lon="17.155290842056274">
        <ele>485.07</ele>
        <time>2023-11-15T12:36:14.229Z</time>
      </trkpt>
      <trkpt lat="48.27076085843146" lon="17.155290842056274">
        <ele>487.15</ele>
        <time>2023-11-15T12:36:15.939Z</time>
      </trkpt>
      <trkpt lat="48.27067494392395" lon="17.155730724334717">
        <ele>489.47</ele>
        <time>2023-11-15T12:36:17.654Z</time>
      </trkpt>
      <trkpt lat="48.27059984207153" lon="17.155945301055908">
        <ele>491.93</ele>
        <time>2023-11-15T12:36:19.372Z</time>
      </trkpt>
      <trkpt lat="48.27022433280945" lon="17.15685725212097">
        <ele>494.58</ele>
        <time>2023-11-15T12:36:21.101Z</time>
      </trkpt>
      <trkpt lat="48.27022441662848" lon="17.15685725212097">
        <ele>497.01</ele>
        <time>2023-11-15T12:36:22.830Z</time>
      </trkpt>
      <trkpt lat="48.2698917388916" lon="17.157747745513916">
        <ele>499.64</ele>
        <time>2023-11-15T12:36:24.570Z</time>
      </trkpt>
      <trkpt lat="48.26968789100647" lon="17.15811252593994">
        <ele>502.27</ele>
        <time>2023-11-15T12:36:26.315Z</time>
      </trkpt>
      <trkpt lat="48.26941967010498" lon="17.158477306365967">
        <ele>505.08</ele>
        <time>2023-11-15T12:36:28.066Z</time>
      </trkpt>
      <trkpt lat="48.269097888842225" lon="17.158777713775635">
        <ele>507.87</ele>
        <time>2023-11-15T12:36:29.823Z</time>
      </trkpt>
      <trkpt lat="48.26862573623657" lon="17.1591317653656">
        <ele>510.84</ele>
        <time>2023-11-15T12:36:31.589Z</time>
      </trkpt>
      <trkpt lat="48.2682288531214" lon="17.159335613250732">
        <ele>513.45</ele>
        <time>2023-11-15T12:36:33.361Z</time>
      </trkpt>
      <trkpt lat="48.268121564760804" lon="17.15938925743103">
        <ele>515.88</ele>
        <time>2023-11-15T12:36:35.135Z</time>
      </trkpt>
      <trkpt lat="48.26744564808905" lon="17.159711122512817">
        <ele>518.43</ele>
        <time>2023-11-15T12:36:36.921Z</time>
      </trkpt>
      <trkpt lat="48.267295360565186" lon="17.159775495529175">
        <ele>520.8</ele>
        <time>2023-11-15T12:36:38.709Z</time>
      </trkpt>
      <trkpt lat="48.26711297035217" lon="17.15990424156189">
        <ele>523.06</ele>
        <time>2023-11-15T12:36:40.500Z</time>
      </trkpt>
      <trkpt lat="48.26693058013916" lon="17.16015100479126">
        <ele>525.47</ele>
        <time>2023-11-15T12:36:42.295Z</time>
      </trkpt>
      <trkpt lat="48.266844749450684" lon="17.160322666168213">
        <ele>527.71</ele>
        <time>2023-11-15T12:36:44.093Z</time>
      </trkpt>
      <trkpt lat="48.266791105270386" lon="17.160483598709106">
        <ele>529.92</ele>
        <time>2023-11-15T12:36:45.892Z</time>
      </trkpt>
      <trkpt lat="48.266791105270386" lon="17.16068744659424">
        <ele>532.05</ele>
        <time>2023-11-15T12:36:47.694Z</time>
      </trkpt>
      <trkpt lat="48.266834020614624" lon="17.16135263442993">
        <ele>534.33</ele>
        <time>2023-11-15T12:36:49.503Z</time>
      </trkpt>
      <trkpt lat="48.266812562942505" lon="17.161513566970825">
        <ele>536.42</ele>
        <time>2023-11-15T12:36:51.314Z</time>
      </trkpt>
      <trkpt lat="48.26676964759827" lon="17.16161012649536">
        <ele>538.55</ele>
        <time>2023-11-15T12:36:53.126Z</time>
      </trkpt>
      <trkpt lat="48.26665163040161" lon="17.161781787872314">
        <ele>540.72</ele>
        <time>2023-11-15T12:36:54.940Z</time>
      </trkpt>
      <trkpt lat="48.266544342041016" lon="17.16186761856079">
        <ele>542.92</ele>
        <time>2023-11-15T12:36:56.756Z</time>
      </trkpt>
      <trkpt lat="48.266383493319154" lon="17.16188907623291">
        <ele>545.14</ele>
        <time>2023-11-15T12:36:58.575Z</time>
      </trkpt>
      <trkpt lat="48.26394804753363" lon="17.160977125167847">
        <ele>547.97</ele>
        <time>2023-11-15T12:37:00.434Z</time>
      </trkpt>
      <trkpt lat="48.2639479637146" lon="17.160977125167847">
        <ele>549.61</ele>
        <time>2023-11-15T12:37:02.293Z</time>
      </trkpt>
      <trkpt lat="48.26242455281317" lon="17.16039776802063">
        <ele>551.9</ele>
        <time>2023-11-15T12:37:04.177Z</time>
      </trkpt>
      <trkpt lat="48.26022514142096" lon="17.159560918807983">
        <ele>552.92</ele>
        <time>2023-11-15T12:37:06.098Z</time>
      </trkpt>
      <trkpt lat="48.26022505760193" lon="17.159560918807983">
        <ele>553.44</ele>
        <time>2023-11-15T12:37:08.019Z</time>
      </trkpt>
      <trkpt lat="48.25769305229187" lon="17.159260511398315">
        <ele>553.57</ele>
        <time>2023-11-15T12:37:09.980Z</time>
      </trkpt>
      <trkpt lat="48.25640559196472" lon="17.159078121185303">
        <ele>553.2</ele>
        <time>2023-11-15T12:37:11.962Z</time>
      </trkpt>
      <trkpt lat="48.25612664222717" lon="17.159078121185303">
        <ele>552.36</ele>
        <time>2023-11-15T12:37:13.948Z</time>
      </trkpt>
      <trkpt lat="48.2558798789978" lon="17.1591317653656">
        <ele>551.35</ele>
        <time>2023-11-15T12:37:15.938Z</time>
      </trkpt>
      <trkpt lat="48.25548299588263" lon="17.159260511398315">
        <ele>550.1</ele>
        <time>2023-11-15T12:37:17.935Z</time>
      </trkpt>
      <trkpt lat="48.2554829120636" lon="17.159260511398315">
        <ele>549.15</ele>
        <time>2023-11-15T12:37:19.932Z</time>
      </trkpt>
      <trkpt lat="48.255053758621216" lon="17.15935707092285">
        <ele>547.97</ele>
        <time>2023-11-15T12:37:21.936Z</time>
      </trkpt>
      <trkpt lat="48.25489282608032" lon="17.15935707092285">
        <ele>546.75</ele>
        <time>2023-11-15T12:37:23.942Z</time>
      </trkpt>
      <trkpt lat="48.25474262237549" lon="17.159346342086792">
        <ele>545.41</ele>
        <time>2023-11-15T12:37:25.951Z</time>
      </trkpt>
      <trkpt lat="48.25457104481757" lon="17.159260511398315">
        <ele>544.0</ele>
        <time>2023-11-15T12:37:27.963Z</time>
      </trkpt>
      <trkpt lat="48.25444221496582" lon="17.1591317653656">
        <ele>542.62</ele>
        <time>2023-11-15T12:37:29.977Z</time>
      </trkpt>
      <trkpt lat="48.254334926605225" lon="17.158960103988647">
        <ele>541.3</ele>
        <time>2023-11-15T12:37:31.994Z</time>
      </trkpt>
      <trkpt lat="48.25418472290039" lon="17.15867042541504">
        <ele>540.1</ele>
        <time>2023-11-15T12:37:34.015Z</time>
      </trkpt>
      <trkpt lat="48.25406678952277" lon="17.158273458480835">
        <ele>539.19</ele>
        <time>2023-11-15T12:37:36.040Z</time>
      </trkpt>
      <trkpt lat="48.25402387417853" lon="17.158123254776">
        <ele>538.7</ele>
        <time>2023-11-15T12:37:38.067Z</time>
      </trkpt>
      <trkpt lat="48.253852212801576" lon="17.157490253448486">
        <ele>538.63</ele>
        <time>2023-11-15T12:37:40.101Z</time>
      </trkpt>
      <trkpt lat="48.25374484062195" lon="17.15713620185852">
        <ele>538.77</ele>
        <time>2023-11-15T12:37:42.140Z</time>
      </trkpt>
      <trkpt lat="48.253540992736816" lon="17.156299352645874">
        <ele>539.13</ele>
        <time>2023-11-15T12:37:44.188Z</time>
      </trkpt>
      <trkpt lat="48.2534122467041" lon="17.15567708015442">
        <ele>539.71</ele>
        <time>2023-11-15T12:37:46.243Z</time>
      </trkpt>
      <trkpt lat="48.25349807739258" lon="17.155709266662598">
        <ele>541.29</ele>
        <time>2023-11-15T12:37:48.299Z</time>
      </trkpt>
      <trkpt lat="48.253594636917114" lon="17.15566635131836">
        <ele>543.58</ele>
        <time>2023-11-15T12:37:50.357Z</time>
      </trkpt>
      <trkpt lat="48.25374484062195" lon="17.155451774597168">
        <ele>546.79</ele>
        <time>2023-11-15T12:37:52.418Z</time>
      </trkpt>
      <trkpt lat="48.25438857078552" lon="17.154099941253662">
        <ele>551.79</ele>
        <time>2023-11-15T12:37:54.497Z</time>
      </trkpt>
      <trkpt lat="48.25449585914612" lon="17.153767347335815">
        <ele>555.44</ele>
        <time>2023-11-15T12:37:56.580Z</time>
      </trkpt>
      <trkpt lat="48.254603147506714" lon="17.153005599975586">
        <ele>559.57</ele>
        <time>2023-11-15T12:37:58.671Z</time>
      </trkpt>
    </trkseg>
  </trk>
</gpx>
